Time;durP1;ratioP1;P1;durP2;ratioP2;P2;SDS_P1;SDS_P2;PMS_P1;PMS_P2;Temp;Humidity;BMP_temperature;BMP_pressure;BME280_temperature;BME280_humidity;BME280_pressure;Samples;Min_cycle;Max_cycle;Signal;HPM_P1;HPM_P2
2022/07/31 00:00:40;;;;;;;2.42;1.50;;;;;;;;;;5005178;28;20375;-64
2022/07/31 00:03:06;;;;;;;3.38;1.77;;;;;;;;;;4989984;28;20337;-67
2022/07/31 00:05:32;;;;;;;2.60;1.65;;;;;;;;;;4989947;28;20352;-64
2022/07/31 00:07:57;;;;;;;1.90;1.35;;;;;;;;;;4990025;28;20289;-70
2022/07/31 00:10:23;;;;;;;1.85;1.42;;;;;;;;;;4990079;28;20363;-64
2022/07/31 00:12:48;;;;;;;1.55;1.20;;;;;;;;;;4989926;28;20443;-67
2022/07/31 00:15:14;;;;;;;2.03;1.40;;;;;;;;;;4990024;28;20554;-64
2022/07/31 00:17:40;;;;;;;2.45;1.50;;;;;;;;;;4990413;28;20478;-65
2022/07/31 00:20:07;;;;;;;1.98;1.58;;;;;;;;;;4991588;28;20493;-64
2022/07/31 00:22:32;;;;;;;2.53;1.75;;;;;;;;;;4990130;28;20540;-65
2022/07/31 00:24:58;;;;;;;2.00;1.50;;;;;;;;;;4990035;28;20509;-65
2022/07/31 00:27:23;;;;;;;2.30;1.40;;;;;;;;;;4990447;28;20331;-65
2022/07/31 00:29:49;;;;;;;2.83;1.38;;;;;;;;;;4989759;28;20029;-65
2022/07/31 00:32:14;;;;;;;3.63;1.45;;;;;;;;;;4989557;28;20451;-64
2022/07/31 00:34:41;;;;;;;1.65;1.33;;;;;;;;;;4990117;28;20095;-65
2022/07/31 00:37:07;;;;;;;2.20;1.75;;;;;;;;;;4988696;28;20390;-64
2022/07/31 00:39:32;;;;;;;2.70;1.40;;;;;;;;;;4989872;28;20390;-64
2022/07/31 00:41:58;;;;;;;2.28;1.50;;;;;;;;;;4988937;28;20479;-64
2022/07/31 00:44:23;;;;;;;1.92;1.50;;;;;;;;;;4989141;28;20448;-64
2022/07/31 00:46:48;;;;;;;2.33;1.40;;;;;;;;;;4989156;28;20347;-64
2022/07/31 00:49:14;;;;;;;1.88;1.52;;;;;;;;;;4989694;28;20453;-64
2022/07/31 00:51:39;;;;;;;2.10;1.10;;;;;;;;;;4989807;28;20367;-65
2022/07/31 00:54:07;;;;;;;1.63;1.23;;;;;;;;;;4989416;28;20097;-64
2022/07/31 00:56:32;;;;;;;3.10;1.30;;;;;;;;;;4988837;28;20489;-64
2022/07/31 00:58:58;;;;;;;2.00;1.40;;;;;;;;;;4989149;28;20713;-65
2022/07/31 01:01:23;;;;;;;2.97;1.58;;;;;;;;;;4983881;28;20493;-64
2022/07/31 01:03:49;;;;;;;2.10;1.50;;;;;;;;;;4981152;28;20393;-64
2022/07/31 01:06:15;;;;;;;1.85;1.40;;;;;;;;;;4988923;28;20420;-64
2022/07/31 01:08:40;;;;;;;2.67;1.42;;;;;;;;;;4988839;28;20499;-65
2022/07/31 01:11:20;;;;;;;1.17;1.05;;;;;;;;;;4989251;28;20328;-64
2022/07/31 01:14:01;;;;;;;2.15;1.33;;;;;;;;;;4970771;28;20462;-64
2022/07/31 01:16:33;;;;;;;1.65;1.13;;;;;;;;;;4988748;28;20696;-66
2022/07/31 01:18:58;;;;;;;1.15;1.00;;;;;;;;;;4971223;28;20348;-64
2022/07/31 01:21:39;;;;;;;1.58;1.38;;;;;;;;;;4971305;28;20367;-64
2022/07/31 01:24:46;;;;;;;2.47;1.25;;;;;;;;;;4970938;28;20456;-64
2022/07/31 01:27:53;;;;;;;1.40;1.10;;;;;;;;;;4988973;28;20432;-64
2022/07/31 01:30:23;;;;;;;1.77;1.27;;;;;;;;;;4990046;28;20411;-64
2022/07/31 01:32:49;;;;;;;1.42;1.17;;;;;;;;;;4970694;28;20092;-64
2022/07/31 01:35:21;;;;;;;1.83;1.05;;;;;;;;;;4990277;28;20514;-65
2022/07/31 01:38:12;;;;;;;2.00;1.15;;;;;;;;;;4987174;28;20522;-65
2022/07/31 01:40:42;;;;;;;1.27;0.88;;;;;;;;;;4968314;28;20467;-65
2022/07/31 01:43:11;;;;;;;2.20;1.42;;;;;;;;;;4967860;28;20411;-65
2022/07/31 01:45:38;;;;;;;1.65;1.33;;;;;;;;;;4968942;28;20033;-67
2022/07/31 01:48:03;;;;;;;2.95;1.15;;;;;;;;;;4967759;28;20460;-65
2022/07/31 01:50:30;;;;;;;1.80;1.15;;;;;;;;;;4970561;28;20462;-65
2022/07/31 01:52:56;;;;;;;1.45;0.98;;;;;;;;;;4972165;28;20313;-65
2022/07/31 01:55:22;;;;;;;1.70;1.10;;;;;;;;;;5004281;28;20459;-65
2022/07/31 01:57:48;;;;;;;1.50;1.15;;;;;;;;;;4972799;28;20052;-65
2022/07/31 02:00:14;;;;;;;1.88;1.20;;;;;;;;;;4971396;28;20440;-65
2022/07/31 02:02:40;;;;;;;1.60;1.00;;;;;;;;;;4973976;28;20475;-65
2022/07/31 02:05:06;;;;;;;1.10;1.00;;;;;;;;;;4970999;28;20433;-64
2022/07/31 02:07:34;;;;;;;1.80;1.00;;;;;;;;;;4971539;28;20409;-68
2022/07/31 02:09:59;;;;;;;1.13;0.93;;;;;;;;;;5003989;28;20503;-65
2022/07/31 02:12:26;;;;;;;1.45;0.95;;;;;;;;;;4954933;28;20343;-65
2022/07/31 02:14:52;;;;;;;1.10;0.75;;;;;;;;;;5003826;28;20432;-65
2022/07/31 02:17:18;;;;;;;1.65;1.10;;;;;;;;;;4972322;28;20495;-65
2022/07/31 02:19:44;;;;;;;0.73;0.70;;;;;;;;;;4971318;28;20523;-65
2022/07/31 02:22:09;;;;;;;1.42;0.90;;;;;;;;;;4972394;28;20470;-66
2022/07/31 02:24:35;;;;;;;1.30;1.02;;;;;;;;;;4972251;28;20417;-65
2022/07/31 02:27:01;;;;;;;1.13;0.80;;;;;;;;;;4971573;28;20441;-65
2022/07/31 02:29:30;;;;;;;1.50;1.10;;;;;;;;;;4970965;28;20025;-64
2022/07/31 02:31:56;;;;;;;1.23;0.98;;;;;;;;;;4970446;28;20412;-64
2022/07/31 02:34:22;;;;;;;0.98;0.73;;;;;;;;;;4970758;28;20468;-65
2022/07/31 02:36:47;;;;;;;0.73;0.70;;;;;;;;;;4971801;28;20400;-65
2022/07/31 02:39:14;;;;;;;2.65;1.00;;;;;;;;;;4970815;28;20033;-65
2022/07/31 02:41:40;;;;;;;0.88;0.63;;;;;;;;;;4970524;28;20025;-65
2022/07/31 02:44:06;;;;;;;1.10;0.77;;;;;;;;;;4970024;28;20464;-65
2022/07/31 02:46:31;;;;;;;1.08;0.90;;;;;;;;;;5003617;28;20056;-65
2022/07/31 02:48:57;;;;;;;1.92;0.80;;;;;;;;;;4970179;28;20459;-66
2022/07/31 02:51:23;;;;;;;0.70;0.70;;;;;;;;;;4972589;28;20168;-66
2022/07/31 02:53:48;;;;;;;1.13;0.73;;;;;;;;;;4972877;28;20432;-65
2022/07/31 02:56:15;;;;;;;0.80;0.70;;;;;;;;;;4971310;28;20464;-65
2022/07/31 02:58:41;;;;;;;0.70;0.63;;;;;;;;;;4970496;28;20339;-65
2022/07/31 03:01:07;;;;;;;0.90;0.80;;;;;;;;;;4970348;28;20061;-65
2022/07/31 03:03:32;;;;;;;1.77;0.70;;;;;;;;;;4986806;28;20116;-64
2022/07/31 03:05:58;;;;;;;0.80;0.70;;;;;;;;;;4972085;28;20404;-65
2022/07/31 03:08:23;;;;;;;1.95;0.63;;;;;;;;;;4971734;28;20487;-65
2022/07/31 03:10:49;;;;;;;1.35;0.80;;;;;;;;;;4971703;28;20316;-65
2022/07/31 03:13:15;;;;;;;1.60;0.80;;;;;;;;;;4971366;28;20334;-65
2022/07/31 03:15:42;;;;;;;0.70;0.60;;;;;;;;;;4971338;28;20180;-65
2022/07/31 03:18:10;;;;;;;2.15;0.80;;;;;;;;;;4971199;28;20432;-66
2022/07/31 03:20:36;;;;;;;0.70;0.50;;;;;;;;;;4972265;28;20348;-65
2022/07/31 03:23:02;;;;;;;1.58;0.77;;;;;;;;;;4971456;28;20025;-65
2022/07/31 03:25:28;;;;;;;0.80;0.50;;;;;;;;;;4971801;28;20502;-64
2022/07/31 03:27:53;;;;;;;3.78;0.63;;;;;;;;;;4971151;28;20428;-64
2022/07/31 03:30:23;;;;;;;0.95;0.63;;;;;;;;;;4971769;28;20399;-65
2022/07/31 03:32:50;;;;;;;0.50;0.50;;;;;;;;;;4971903;28;20309;-64
2022/07/31 03:35:16;;;;;;;0.93;0.70;;;;;;;;;;4971401;28;20343;-64
2022/07/31 03:37:42;;;;;;;1.17;0.52;;;;;;;;;;4985842;28;20460;-65
2022/07/31 03:40:08;;;;;;;1.30;0.57;;;;;;;;;;4970959;28;20344;-64
2022/07/31 03:42:34;;;;;;;0.40;0.40;;;;;;;;;;4973110;28;20440;-65
2022/07/31 03:45:00;;;;;;;1.17;0.60;;;;;;;;;;4991893;28;20427;-65
2022/07/31 03:47:26;;;;;;;0.50;0.50;;;;;;;;;;4972267;28;20355;-65
2022/07/31 03:49:51;;;;;;;0.50;0.50;;;;;;;;;;4990733;28;20102;-66
2022/07/31 03:52:17;;;;;;;1.05;0.40;;;;;;;;;;4991986;28;20347;-65
2022/07/31 03:54:42;;;;;;;3.50;0.40;;;;;;;;;;4990677;28;20490;-64
2022/07/31 03:57:08;;;;;;;5.10;1.20;;;;;;;;;;4972326;28;20452;-65
2022/07/31 03:59:34;;;;;;;0.25;0.25;;;;;;;;;;4972720;28;20029;-65
2022/07/31 04:02:00;;;;;;;0.90;0.68;;;;;;;;;;4972887;28;20060;-67
2022/07/31 04:04:26;;;;;;;0.57;0.57;;;;;;;;;;4990448;28;20033;-65
2022/07/31 04:06:52;;;;;;;0.40;0.40;;;;;;;;;;4989843;28;20472;-65
2022/07/31 04:09:19;;;;;;;1.05;0.73;;;;;;;;;;4990045;28;20033;-65
2022/07/31 04:11:45;;;;;;;0.43;0.43;;;;;;;;;;4991347;28;20447;-64
2022/07/31 04:14:11;;;;;;;0.40;0.40;;;;;;;;;;4989822;28;20462;-65
2022/07/31 04:16:36;;;;;;;3.67;0.50;;;;;;;;;;4991052;28;20048;-64
2022/07/31 04:19:02;;;;;;;1.27;0.60;;;;;;;;;;4989923;28;20033;-65
2022/07/31 04:21:27;;;;;;;0.28;0.22;;;;;;;;;;4990957;28;20132;-65
2022/07/31 04:23:53;;;;;;;0.90;0.52;;;;;;;;;;4990194;28;20414;-64
2022/07/31 04:26:18;;;;;;;0.60;0.50;;;;;;;;;;4990436;28;20335;-64
2022/07/31 04:28:43;;;;;;;0.40;0.40;;;;;;;;;;4971803;28;20456;-67
2022/07/31 04:31:09;;;;;;;0.40;0.40;;;;;;;;;;4990112;28;20436;-65
2022/07/31 04:33:34;;;;;;;0.43;0.32;;;;;;;;;;4991020;28;20125;-65
2022/07/31 04:36:00;;;;;;;0.50;0.50;;;;;;;;;;4989637;28;20463;-65
2022/07/31 04:38:25;;;;;;;0.85;0.55;;;;;;;;;;4989794;28;20335;-67
2022/07/31 04:40:50;;;;;;;0.73;0.40;;;;;;;;;;4989156;28;20328;-66
2022/07/31 04:43:16;;;;;;;0.20;0.20;;;;;;;;;;4981623;28;20400;-65
2022/07/31 04:45:42;;;;;;;0.40;0.40;;;;;;;;;;4969353;28;20400;-65
2022/07/31 04:48:07;;;;;;;1.45;0.43;;;;;;;;;;4969633;28;20376;-65
2022/07/31 04:50:33;;;;;;;0.50;0.40;;;;;;;;;;4970397;28;20455;-65
2022/07/31 04:52:58;;;;;;;0.47;0.40;;;;;;;;;;4969329;28;20423;-65
2022/07/31 04:55:23;;;;;;;0.52;0.50;;;;;;;;;;4970404;28;20456;-66
2022/07/31 04:57:49;;;;;;;0.40;0.40;;;;;;;;;;4970095;28;20309;-65
2022/07/31 05:00:14;;;;;;;0.57;0.40;;;;;;;;;;4971002;28;20367;-65
2022/07/31 05:02:40;;;;;;;0.30;0.30;;;;;;;;;;4969690;28;20041;-66
2022/07/31 05:05:06;;;;;;;0.30;0.30;;;;;;;;;;4969775;28;20486;-64
2022/07/31 05:07:31;;;;;;;0.47;0.40;;;;;;;;;;4969831;28;20440;-65
2022/07/31 05:09:57;;;;;;;0.32;0.32;;;;;;;;;;4969564;28;20021;-65
2022/07/31 05:12:23;;;;;;;0.57;0.38;;;;;;;;;;4970044;28;20499;-68
2022/07/31 05:14:48;;;;;;;0.70;0.50;;;;;;;;;;4970734;28;20355;-65
2022/07/31 05:17:13;;;;;;;0.77;0.40;;;;;;;;;;4970047;28;20041;-65
2022/07/31 05:19:39;;;;;;;0.70;0.38;;;;;;;;;;4969584;28;20079;-65
2022/07/31 05:22:04;;;;;;;0.50;0.40;;;;;;;;;;4969629;28;20347;-65
2022/07/31 05:24:30;;;;;;;1.40;0.28;;;;;;;;;;4970741;28;20459;-65
2022/07/31 05:26:56;;;;;;;0.25;0.20;;;;;;;;;;4973708;28;20033;-65
2022/07/31 05:29:21;;;;;;;6.25;0.60;;;;;;;;;;4974447;28;20319;-64
2022/07/31 05:31:47;;;;;;;0.40;0.30;;;;;;;;;;4973836;28;20469;-65
2022/07/31 05:34:12;;;;;;;1.38;0.38;;;;;;;;;;4973212;28;20428;-66
2022/07/31 05:36:37;;;;;;;0.50;0.40;;;;;;;;;;4973129;28;20383;-64
2022/07/31 05:39:03;;;;;;;0.65;0.43;;;;;;;;;;4972957;28;20048;-65
2022/07/31 05:41:32;;;;;;;0.32;0.30;;;;;;;;;;4972926;28;20044;-66
2022/07/31 05:43:57;;;;;;;;;;;;;;;;;;4973299;28;20357;-65
2022/07/31 05:46:22;;;;;;;0.20;0.20;;;;;;;;;;4974055;28;20278;-65
2022/07/31 05:48:48;;;;;;;0.30;0.25;;;;;;;;;;4973145;28;20436;-64
2022/07/31 05:51:13;;;;;;;0.68;0.40;;;;;;;;;;4972882;28;20612;-65
2022/07/31 05:53:39;;;;;;;0.20;0.17;;;;;;;;;;4971198;28;20440;-65
2022/07/31 05:56:05;;;;;;;0.35;0.30;;;;;;;;;;4973523;28;20389;-65
2022/07/31 05:58:32;;;;;;;0.63;0.38;;;;;;;;;;4973217;28;20462;-65
2022/07/31 06:00:58;;;;;;;0.20;0.20;;;;;;;;;;4973048;28;20310;-71
2022/07/31 06:03:26;;;;;;;0.55;0.30;;;;;;;;;;4972838;28;20033;-65
2022/07/31 06:05:52;;;;;;;0.93;0.60;;;;;;;;;;4972173;28;20388;-64
2022/07/31 06:08:18;;;;;;;0.60;0.32;;;;;;;;;;4972210;28;20487;-65
2022/07/31 06:10:44;;;;;;;0.10;0.10;;;;;;;;;;4972789;28;20385;-65
2022/07/31 06:13:09;;;;;;;0.75;0.35;;;;;;;;;;4972348;28;20456;-65
2022/07/31 06:15:35;;;;;;;0.20;0.15;;;;;;;;;;4973732;28;20349;-65
2022/07/31 06:18:00;;;;;;;1.25;0.30;;;;;;;;;;4972042;28;20353;-65
2022/07/31 06:20:26;;;;;;;0.50;0.38;;;;;;;;;;4972599;28;20433;-65
2022/07/31 06:22:52;;;;;;;1.55;0.10;;;;;;;;;;4972831;28;20325;-65
2022/07/31 06:25:17;;;;;;;0.40;0.20;;;;;;;;;;4972467;28;20519;-65
2022/07/31 06:27:43;;;;;;;0.38;0.30;;;;;;;;;;4972389;28;20459;-65
2022/07/31 06:30:09;;;;;;;0.68;0.28;;;;;;;;;;4972243;28;20376;-65
2022/07/31 06:32:35;;;;;;;0.85;0.40;;;;;;;;;;4972354;28;20467;-65
2022/07/31 06:35:01;;;;;;;0.17;0.17;;;;;;;;;;4972187;28;20460;-65
2022/07/31 06:37:27;;;;;;;0.47;0.30;;;;;;;;;;4972488;28;20047;-65
2022/07/31 06:39:53;;;;;;;0.20;0.20;;;;;;;;;;4973265;28;20416;-65
2022/07/31 06:42:21;;;;;;;0.38;0.20;;;;;;;;;;4972134;28;20364;-65
2022/07/31 06:44:47;;;;;;;0.47;0.10;;;;;;;;;;4972032;28;20395;-65
2022/07/31 06:47:14;;;;;;;0.30;0.20;;;;;;;;;;4971697;28;20048;-66
2022/07/31 06:49:39;;;;;;;0.20;0.20;;;;;;;;;;4954115;28;20379;-65
2022/07/31 06:52:05;;;;;;;0.60;0.30;;;;;;;;;;4972178;28;20301;-65
2022/07/31 06:54:30;;;;;;;0.20;0.20;;;;;;;;;;4987725;28;20470;-64
2022/07/31 06:56:56;;;;;;;0.20;0.20;;;;;;;;;;4972354;28;20489;-65
2022/07/31 06:59:21;;;;;;;0.40;0.22;;;;;;;;;;4971669;28;20498;-65
2022/07/31 07:01:47;;;;;;;0.43;0.20;;;;;;;;;;4971504;28;20464;-64
2022/07/31 07:04:12;;;;;;;0.55;0.52;;;;;;;;;;4971777;28;20499;-65
2022/07/31 07:06:38;;;;;;;0.30;0.20;;;;;;;;;;4971715;28;20432;-65
2022/07/31 07:09:03;;;;;;;0.20;0.20;;;;;;;;;;4971464;28;20162;-65
2022/07/31 07:11:29;;;;;;;0.30;0.30;;;;;;;;;;4971727;28;20026;-66
2022/07/31 07:13:54;;;;;;;0.35;0.32;;;;;;;;;;4971232;28;20449;-65
2022/07/31 07:16:20;;;;;;;0.10;0.10;;;;;;;;;;4971425;28;20424;-65
2022/07/31 07:18:45;;;;;;;0.68;0.30;;;;;;;;;;4971372;28;20463;-66
2022/07/31 07:21:11;;;;;;;0.10;0.10;;;;;;;;;;4971215;28;20491;-65
2022/07/31 07:23:37;;;;;;;0.40;0.20;;;;;;;;;;4971465;28;20501;-65
2022/07/31 07:26:02;;;;;;;0.25;0.25;;;;;;;;;;4971049;28;20458;-65
2022/07/31 07:28:28;;;;;;;0.20;0.20;;;;;;;;;;4986191;28;20432;-65
2022/07/31 07:30:54;;;;;;;0.20;0.20;;;;;;;;;;4970942;28;20382;-66
2022/07/31 07:33:19;;;;;;;0.20;0.20;;;;;;;;;;4971807;28;20444;-65
2022/07/31 07:35:45;;;;;;;0.20;0.20;;;;;;;;;;4970904;28;20413;-65
2022/07/31 07:38:10;;;;;;;0.85;0.25;;;;;;;;;;4970819;28;20463;-64
2022/07/31 07:40:35;;;;;;;0.38;0.30;;;;;;;;;;4971745;28;20403;-64
2022/07/31 07:43:01;;;;;;;0.50;0.40;;;;;;;;;;4970689;28;20372;-64
2022/07/31 07:45:26;;;;;;;0.65;0.30;;;;;;;;;;4970833;28;20333;-65
2022/07/31 07:47:52;;;;;;;0.32;0.30;;;;;;;;;;4970577;28;20025;-65
2022/07/31 07:50:17;;;;;;;0.35;0.30;;;;;;;;;;4965396;28;20064;-64
2022/07/31 07:52:43;;;;;;;0.30;0.22;;;;;;;;;;4970770;28;20030;-66
2022/07/31 07:55:11;;;;;;;0.20;0.13;;;;;;;;;;4971029;28;20380;-65
2022/07/31 07:57:37;;;;;;;0.22;0.20;;;;;;;;;;4972174;28;20424;-65
2022/07/31 08:00:05;;;;;;;0.70;0.40;;;;;;;;;;4970650;28;20510;-65
2022/07/31 08:02:31;;;;;;;0.20;0.10;;;;;;;;;;4971092;28;20791;-65
2022/07/31 08:04:57;;;;;;;0.20;0.20;;;;;;;;;;4971384;28;20108;-65
2022/07/31 08:07:27;;;;;;;0.10;0.10;;;;;;;;;;4970612;28;20471;-64
2022/07/31 08:09:53;;;;;;;0.63;0.30;;;;;;;;;;4970523;28;20432;-65
2022/07/31 08:12:18;;;;;;;0.05;0.05;;;;;;;;;;4970748;28;20328;-65
2022/07/31 08:14:45;;;;;;;0.68;0.30;;;;;;;;;;4971306;28;20341;-65
2022/07/31 08:17:11;;;;;;;0.52;0.40;;;;;;;;;;4970571;28;20353;-65
2022/07/31 08:19:37;;;;;;;0.43;0.30;;;;;;;;;;4970355;28;20353;-65
2022/07/31 08:22:02;;;;;;;0.52;0.32;;;;;;;;;;4968608;28;20415;-65
2022/07/31 08:24:28;;;;;;;0.30;0.20;;;;;;;;;;4970253;28;20364;-65
2022/07/31 08:29:37;;;;;;;0.55;0.32;;;;;;;;;;4971765;28;20490;-64
2022/07/31 08:32:03;;;;;;;0.35;0.20;;;;;;;;;;4969937;28;20475;-65
2022/07/31 08:34:28;;;;;;;0.35;0.20;;;;;;;;;;4969858;28;20057;-66
2022/07/31 08:36:53;;;;;;;0.47;0.30;;;;;;;;;;4969834;28;20415;-65
2022/07/31 08:39:19;;;;;;;0.20;0.20;;;;;;;;;;4971243;28;20443;-64
2022/07/31 08:41:44;;;;;;;0.30;0.30;;;;;;;;;;4969846;28;20052;-65
2022/07/31 08:44:10;;;;;;;0.20;0.20;;;;;;;;;;4969956;28;20104;-65
2022/07/31 08:46:37;;;;;;;0.10;0.10;;;;;;;;;;4970008;28;20379;-65
2022/07/31 08:49:03;;;;;;;0.10;0.10;;;;;;;;;;4969918;28;20451;-65
2022/07/31 08:51:31;;;;;;;0.10;0.10;;;;;;;;;;4969525;28;20408;-65
2022/07/31 08:53:58;;;;;;;0.43;0.30;;;;;;;;;;4969773;28;20424;-65
2022/07/31 08:56:24;;;;;;;0.30;0.20;;;;;;;;;;4969582;28;20513;-66
2022/07/31 08:58:50;;;;;;;0.57;0.20;;;;;;;;;;4968831;28;20497;-65
2022/07/31 09:01:15;;;;;;;0.20;0.20;;;;;;;;;;4969341;28;20407;-66
2022/07/31 09:03:41;;;;;;;0.60;0.30;;;;;;;;;;4970035;28;20485;-65
2022/07/31 09:06:06;;;;;;;0.20;0.17;;;;;;;;;;4951952;28;20344;-65
2022/07/31 09:08:35;;;;;;;0.38;0.25;;;;;;;;;;4969368;28;20317;-65
2022/07/31 09:11:06;;;;;;;0.68;0.30;;;;;;;;;;4969210;28;20379;-66
2022/07/31 09:13:33;;;;;;;0.45;0.25;;;;;;;;;;4969225;28;20467;-65
2022/07/31 09:15:59;;;;;;;0.40;0.40;;;;;;;;;;4969562;28;20336;-65
2022/07/31 09:18:25;;;;;;;0.30;0.30;;;;;;;;;;4969650;28;20360;-65
2022/07/31 09:20:56;;;;;;;0.30;0.30;;;;;;;;;;4969352;28;20053;-65
2022/07/31 09:23:22;;;;;;;1.45;0.50;;;;;;;;;;4969466;28;20416;-65
2022/07/31 09:25:58;;;;;;;1.20;0.40;;;;;;;;;;4969566;28;20331;-69
2022/07/31 09:28:34;;;;;;;0.30;0.30;;;;;;;;;;4969463;28;20440;-65
2022/07/31 09:31:01;;;;;;;1.00;0.35;;;;;;;;;;4970728;28;20540;-64
2022/07/31 09:33:29;;;;;;;0.63;0.60;;;;;;;;;;4969074;28;20368;-66
2022/07/31 09:35:55;;;;;;;0.50;0.50;;;;;;;;;;4968973;28;20453;-65
2022/07/31 09:38:22;;;;;;;1.23;0.82;;;;;;;;;;4969089;28;20348;-65
2022/07/31 09:40:47;;;;;;;0.45;0.40;;;;;;;;;;4969291;28;20473;-65
2022/07/31 09:43:18;;;;;;;0.98;0.52;;;;;;;;;;4968765;28;20452;-69
2022/07/31 09:45:45;;;;;;;0.63;0.43;;;;;;;;;;4968726;28;20444;-65
2022/07/31 09:48:14;;;;;;;0.95;0.50;;;;;;;;;;4968946;28;20395;-65
2022/07/31 09:51:06;;;;;;;0.65;0.43;;;;;;;;;;4969076;28;20360;-65
2022/07/31 09:53:46;;;;;;;1.00;0.40;;;;;;;;;;4967438;28;20460;-66
2022/07/31 09:56:13;;;;;;;0.43;0.32;;;;;;;;;;4969948;28;20336;-67
2022/07/31 09:58:40;;;;;;;1.70;0.45;;;;;;;;;;4969274;28;20029;-65
2022/07/31 10:01:11;;;;;;;0.57;0.45;;;;;;;;;;4968736;28;20368;-65
2022/07/31 10:03:38;;;;;;;0.35;0.35;;;;;;;;;;4970004;28;20329;-66
2022/07/31 10:06:04;;;;;;;0.63;0.50;;;;;;;;;;4968564;28;20425;-63
2022/07/31 10:08:35;;;;;;;21.88;0.98;;;;;;;;;;4951495;28;20348;-65
2022/07/31 10:11:04;;;;;;;0.47;0.38;;;;;;;;;;4971426;28;20404;-65
2022/07/31 10:13:32;;;;;;;4.45;0.63;;;;;;;;;;4972250;28;20337;-64
2022/07/31 10:15:59;;;;;;;2.65;0.85;;;;;;;;;;4955176;28;20045;-65
2022/07/31 10:18:27;;;;;;;4.75;1.10;;;;;;;;;;4972658;28;20413;-64
2022/07/31 10:20:54;;;;;;;1.92;1.38;;;;;;;;;;4972303;28;20025;-64
2022/07/31 10:23:22;;;;;;;3.50;1.20;;;;;;;;;;4955266;28;20505;-64
2022/07/31 10:25:54;;;;;;;4.90;1.10;;;;;;;;;;4971849;28;20503;-65
2022/07/31 10:28:20;;;;;;;4.25;1.00;;;;;;;;;;4986927;28;20393;-64
2022/07/31 10:30:47;;;;;;;1.70;0.98;;;;;;;;;;4973302;28;20444;-64
2022/07/31 10:33:12;;;;;;;1.13;0.70;;;;;;;;;;4972186;28;20464;-64
2022/07/31 10:35:44;;;;;;;3.03;1.10;;;;;;;;;;4972017;28;20467;-64
2022/07/31 10:38:35;;;;;;;2.88;0.63;;;;;;;;;;4972701;28;20047;-64
2022/07/31 10:41:08;;;;;;;3.13;0.93;;;;;;;;;;4938560;28;20442;-64
2022/07/31 10:43:49;;;;;;;2.00;0.95;;;;;;;;;;4963519;28;20338;-65
2022/07/31 10:46:28;;;;;;;1.00;0.57;;;;;;;;;;4991774;28;20041;-64
2022/07/31 10:48:54;;;;;;;1.83;1.02;;;;;;;;;;4991859;28;20419;-64
2022/07/31 10:51:21;;;;;;;2.90;0.90;;;;;;;;;;4973940;28;20387;-65
2022/07/31 10:53:59;;;;;;;2.58;0.65;;;;;;;;;;4992123;28;20055;-64
2022/07/31 10:56:25;;;;;;;3.58;0.70;;;;;;;;;;4991215;28;20408;-65
2022/07/31 10:58:56;;;;;;;2.53;0.80;;;;;;;;;;4991521;28;20175;-65
2022/07/31 11:01:22;;;;;;;1.85;0.95;;;;;;;;;;4992322;28;20435;-64
2022/07/31 11:03:51;;;;;;;4.70;0.65;;;;;;;;;;4991822;28;20389;-64
2022/07/31 11:06:17;;;;;;;3.35;0.88;;;;;;;;;;4990928;28;20534;-64
2022/07/31 11:08:51;;;;;;;2.20;0.88;;;;;;;;;;4991156;28;20432;-65
2022/07/31 11:11:17;;;;;;;0.82;0.60;;;;;;;;;;4990645;28;20477;-65
2022/07/31 11:13:51;;;;;;;1.30;0.55;;;;;;;;;;4973213;28;20051;-64
2022/07/31 11:16:18;;;;;;;1.40;0.60;;;;;;;;;;4991360;28;20507;-64
2022/07/31 11:18:54;;;;;;;3.42;0.85;;;;;;;;;;4991494;28;20103;-65
2022/07/31 11:21:29;;;;;;;3.03;1.00;;;;;;;;;;4990427;28;20490;-64
2022/07/31 11:23:54;;;;;;;1.10;0.60;;;;;;;;;;4990707;28;20316;-64
2022/07/31 11:26:19;;;;;;;0.68;0.52;;;;;;;;;;4990712;28;20325;-64
2022/07/31 11:28:45;;;;;;;2.38;0.75;;;;;;;;;;4990743;28;20021;-65
2022/07/31 11:31:10;;;;;;;1.88;0.77;;;;;;;;;;4990715;28;20379;-64
2022/07/31 11:33:42;;;;;;;1.98;0.77;;;;;;;;;;4991035;28;20094;-65
2022/07/31 11:36:20;;;;;;;2.25;0.95;;;;;;;;;;4990506;28;20427;-64
2022/07/31 11:38:51;;;;;;;1.88;0.60;;;;;;;;;;4990733;28;20060;-64
2022/07/31 11:41:17;;;;;;;1.35;0.77;;;;;;;;;;4991795;28;20411;-65
2022/07/31 11:43:48;;;;;;;1.40;0.85;;;;;;;;;;4979556;28;20476;-66
2022/07/31 11:46:27;;;;;;;1.95;0.90;;;;;;;;;;4972566;28;20393;-64
2022/07/31 11:48:54;;;;;;;5.72;0.82;;;;;;;;;;4971113;28;20494;-65
2022/07/31 11:51:20;;;;;;;1.42;0.75;;;;;;;;;;4971573;28;20052;-64
2022/07/31 11:53:46;;;;;;;2.60;1.10;;;;;;;;;;4970560;28;20445;-66
2022/07/31 11:56:11;;;;;;;3.47;0.80;;;;;;;;;;4970523;28;20355;-65
2022/07/31 11:58:40;;;;;;;1.80;0.90;;;;;;;;;;4970442;28;20443;-65
2022/07/31 12:01:05;;;;;;;1.52;0.95;;;;;;;;;;4970659;28;20419;-65
2022/07/31 12:03:36;;;;;;;1.45;0.77;;;;;;;;;;4970302;28;20056;-65
2022/07/31 12:06:02;;;;;;;2.88;1.17;;;;;;;;;;4971764;28;20332;-64
2022/07/31 12:08:28;;;;;;;1.85;1.02;;;;;;;;;;4970673;28;20418;-64
2022/07/31 12:10:54;;;;;;;2.42;1.00;;;;;;;;;;4952566;28;20051;-64
2022/07/31 12:13:21;;;;;;;3.67;1.08;;;;;;;;;;4953129;28;20030;-64
2022/07/31 12:16:04;;;;;;;1.92;0.90;;;;;;;;;;4969991;28;20388;-64
2022/07/31 12:18:58;;;;;;;1.23;0.70;;;;;;;;;;4970449;28;20360;-66
2022/07/31 12:21:34;;;;;;;4.75;1.00;;;;;;;;;;4970153;28;20047;-64
2022/07/31 12:23:59;;;;;;;1.63;0.88;;;;;;;;;;4970497;28;20056;-66
2022/07/31 12:26:27;;;;;;;2.03;1.20;;;;;;;;;;4970077;28;20436;-65
2022/07/31 12:29:19;;;;;;;2.35;1.13;;;;;;;;;;4970234;28;20306;-65
2022/07/31 12:31:54;;;;;;;1.17;0.75;;;;;;;;;;4968006;28;20092;-65
2022/07/31 12:34:25;;;;;;;2.72;1.10;;;;;;;;;;4969931;28;20444;-64
2022/07/31 12:37:02;;;;;;;2.03;0.80;;;;;;;;;;4969693;28;21057;-65
2022/07/31 12:39:29;;;;;;;1.67;0.70;;;;;;;;;;4970093;28;20494;-64
2022/07/31 12:41:54;;;;;;;1.17;0.60;;;;;;;;;;4970480;28;20321;-64
2022/07/31 12:44:19;;;;;;;2.50;1.17;;;;;;;;;;4969256;28;20435;-65
2022/07/31 12:46:45;;;;;;;1.23;0.82;;;;;;;;;;4969762;28;20338;-66
2022/07/31 12:49:12;;;;;;;2.20;1.10;;;;;;;;;;4969749;28;20313;-64
2022/07/31 12:51:37;;;;;;;3.05;1.20;;;;;;;;;;4969765;28;20464;-64
2022/07/31 12:54:03;;;;;;;2.00;1.17;;;;;;;;;;4969474;28;20367;-64
2022/07/31 12:56:32;;;;;;;1.55;0.70;;;;;;;;;;4969573;28;20501;-64
2022/07/31 12:59:01;;;;;;;3.20;0.98;;;;;;;;;;4970015;28;20395;-65
2022/07/31 13:01:26;;;;;;;1.00;0.73;;;;;;;;;;4969627;28;20457;-65
2022/07/31 13:03:52;;;;;;;2.30;1.20;;;;;;;;;;4969703;28;20503;-64
2022/07/31 13:06:17;;;;;;;1.65;1.10;;;;;;;;;;4969887;28;20466;-64
2022/07/31 13:08:42;;;;;;;1.85;0.93;;;;;;;;;;4969335;28;20468;-65
2022/07/31 13:11:08;;;;;;;2.28;1.02;;;;;;;;;;4969347;28;20044;-65
2022/07/31 13:13:33;;;;;;;3.70;0.90;;;;;;;;;;4969407;28;20563;-65
2022/07/31 13:15:58;;;;;;;1.67;1.02;;;;;;;;;;4969639;28;20328;-65
2022/07/31 13:18:24;;;;;;;1.58;0.93;;;;;;;;;;4969865;28;20346;-64
2022/07/31 13:20:49;;;;;;;1.90;1.08;;;;;;;;;;4969370;28;20377;-68
2022/07/31 13:23:15;;;;;;;1.23;0.90;;;;;;;;;;4969866;28;20613;-65
2022/07/31 13:25:40;;;;;;;1.60;0.93;;;;;;;;;;4969407;28;20491;-65
2022/07/31 13:28:05;;;;;;;1.23;0.80;;;;;;;;;;4969436;28;20494;-65
2022/07/31 13:30:31;;;;;;;1.60;0.90;;;;;;;;;;4969475;28;20507;-65
2022/07/31 13:32:56;;;;;;;1.40;1.08;;;;;;;;;;4968812;28;20356;-65
2022/07/31 13:35:24;;;;;;;1.88;0.80;;;;;;;;;;4969469;28;20360;-65
2022/07/31 13:37:50;;;;;;;1.67;1.13;;;;;;;;;;4968889;28;20437;-65
2022/07/31 13:40:17;;;;;;;1.50;0.75;;;;;;;;;;4969088;28;20340;-65
2022/07/31 13:42:43;;;;;;;1.52;0.90;;;;;;;;;;4968720;28;20105;-67
2022/07/31 13:45:09;;;;;;;1.92;1.08;;;;;;;;;;4969705;28;20502;-64
2022/07/31 13:47:34;;;;;;;1.67;1.00;;;;;;;;;;4973049;28;20061;-65
2022/07/31 13:50:00;;;;;;;2.05;0.93;;;;;;;;;;4972870;28;20371;-65
2022/07/31 13:52:25;;;;;;;1.23;0.90;;;;;;;;;;4972992;28;20466;-64
2022/07/31 13:54:51;;;;;;;2.20;1.08;;;;;;;;;;4972729;28;20392;-65
2022/07/31 13:57:16;;;;;;;1.88;0.80;;;;;;;;;;4973788;28;20361;-65
2022/07/31 13:59:41;;;;;;;1.50;0.90;;;;;;;;;;4973372;28;20420;-65
2022/07/31 14:02:07;;;;;;;3.55;1.10;;;;;;;;;;4972609;28;20467;-65
2022/07/31 14:04:32;;;;;;;1.50;1.10;;;;;;;;;;4973733;28;20401;-66
2022/07/31 14:06:58;;;;;;;0.98;0.88;;;;;;;;;;4973033;28;20462;-64
2022/07/31 14:09:24;;;;;;;1.75;0.90;;;;;;;;;;4972807;28;20106;-64
2022/07/31 14:11:49;;;;;;;2.15;0.80;;;;;;;;;;4972880;28;20344;-65
2022/07/31 14:14:14;;;;;;;1.27;0.90;;;;;;;;;;4972495;28;20367;-65
2022/07/31 14:16:41;;;;;;;1.58;0.70;;;;;;;;;;4972870;28;20099;-65
2022/07/31 14:19:06;;;;;;;1.33;0.90;;;;;;;;;;4972759;28;20424;-65
2022/07/31 14:21:33;;;;;;;1.23;0.90;;;;;;;;;;4972325;28;20391;-65
2022/07/31 14:23:59;;;;;;;1.15;0.82;;;;;;;;;;4972700;28;20321;-66
2022/07/31 14:26:24;;;;;;;0.60;0.40;;;;;;;;;;4972192;28;20392;-65
2022/07/31 14:28:49;;;;;;;1.10;0.80;;;;;;;;;;4973808;28;20444;-65
2022/07/31 14:31:15;;;;;;;0.90;0.77;;;;;;;;;;4973126;28;20467;-65
2022/07/31 14:33:41;;;;;;;1.27;0.80;;;;;;;;;;4972702;28;20411;-65
2022/07/31 14:36:06;;;;;;;1.73;0.82;;;;;;;;;;4972622;28;20130;-64
2022/07/31 14:38:32;;;;;;;2.38;1.05;;;;;;;;;;4971992;28;20440;-65
2022/07/31 14:40:57;;;;;;;0.70;0.70;;;;;;;;;;4971765;28;20451;-65
2022/07/31 14:43:23;;;;;;;0.60;0.60;;;;;;;;;;4957662;28;20468;-65
2022/07/31 14:45:48;;;;;;;1.23;0.70;;;;;;;;;;4972209;28;20452;-65